< < Back
Terminal Aerodrome Forecast


Current Version              Previous Versions:   1  2  3  4  5  6  7  8  9  

Terminal Aerodrome Forecast

414
FTUS44 KMRX 282320
TAFCHA
TAF
KCHA 282320Z 2900/2924 00000KT P6SM SCT150
     FM291400 VRB03KT P6SM SCT050=



Latest METAR

042
SAUS80 KWBC 290400 RRB
MTRCHA
METAR KCHA 290353Z 00000KT 10SM FEW250 24/18 A3012 RMK AO2 SLP190 LAST
T02390178


USA.gov is the U.S. government's official web portal to all federal, state and local government web resources and services.